Time;durP1;ratioP1;P1;durP2;ratioP2;P2;SDS_P1;SDS_P2;PMS_P1;PMS_P2;Temp;Humidity;BMP_temperature;BMP_pressure;BME280_temperature;BME280_humidity;BME280_pressure;Samples;Min_cycle;Max_cycle;Signal;HPM_P1;HPM_P2
2024/03/14 00:01:22;;;;;;;18.05;6.43;;;8.70;99.90;;;;;;5032857;28;20131;-65
2024/03/14 00:03:50;;;;;;;14.52;5.70;;;8.70;99.90;;;;;;5038377;28;20045;-66
2024/03/14 00:06:18;;;;;;;14.10;7.07;;;8.70;99.90;;;;;;5036947;28;20021;-66
2024/03/14 00:08:43;;;;;;;17.17;6.53;;;8.80;99.90;;;;;;5041799;28;20097;-65
2024/03/14 00:11:09;;;;;;;15.77;6.13;;;8.70;99.90;;;;;;5033454;28;20079;-65
2024/03/14 00:13:35;;;;;;;15.02;6.53;;;8.70;99.90;;;;;;5037264;28;20036;-65
2024/03/14 00:16:00;;;;;;;14.70;6.40;;;8.70;99.90;;;;;;5040708;28;20061;-65
2024/03/14 00:18:26;;;;;;;15.07;5.30;;;8.70;99.90;;;;;;5035966;28;20091;-66
2024/03/14 00:20:52;;;;;;;16.73;6.13;;;8.70;99.90;;;;;;5034050;28;20385;-66
2024/03/14 00:23:18;;;;;;;13.57;6.45;;;8.70;99.90;;;;;;5032995;28;20025;-65
2024/03/14 00:25:43;;;;;;;15.02;5.95;;;8.70;99.90;;;;;;5034056;28;20021;-66
2024/03/14 00:28:09;;;;;;;14.82;6.50;;;8.60;99.90;;;;;;5045486;28;20065;-65
2024/03/14 00:30:35;;;;;;;14.98;6.05;;;8.70;99.90;;;;;;5031244;28;20079;-65
2024/03/14 00:33:01;;;;;;;15.85;5.97;;;8.70;99.90;;;;;;5030227;28;20531;-66
2024/03/14 00:35:27;;;;;;;17.20;7.13;;;8.70;99.90;;;;;;5038341;28;20100;-65
2024/03/14 00:37:53;;;;;;;18.75;6.35;;;8.70;99.90;;;;;;5036202;28;20056;-65
2024/03/14 00:40:19;;;;;;;12.98;5.60;;;8.70;99.90;;;;;;5031923;28;20041;-65
2024/03/14 00:42:45;;;;;;;17.77;6.47;;;8.80;99.90;;;;;;5034585;28;20049;-66
2024/03/14 00:45:12;;;;;;;15.82;6.38;;;8.80;99.90;;;;;;5035864;28;20041;-65
2024/03/14 00:47:38;;;;;;;18.30;7.55;;;8.80;99.90;;;;;;5040370;28;20089;-65
2024/03/14 00:50:10;;;;;;;18.35;6.40;;;8.80;99.90;;;;;;5041925;28;20060;-68
2024/03/14 00:52:36;;;;;;;13.68;5.45;;;8.80;99.90;;;;;;5031038;28;20096;-66
2024/03/14 00:55:04;;;;;;;15.15;6.43;;;8.80;99.90;;;;;;5044135;28;20486;-66
2024/03/14 00:57:30;;;;;;;13.77;5.68;;;8.80;99.90;;;;;;5030212;28;20123;-65
2024/03/14 00:59:55;;;;;;;12.55;6.03;;;8.80;99.90;;;;;;5033592;28;20139;-66
2024/03/14 01:02:21;;;;;;;14.48;6.75;;;8.80;99.90;;;;;;5039367;28;20045;-66
2024/03/14 01:04:49;;;;;;;14.90;7.03;;;8.80;99.90;;;;;;5044279;28;20135;-66
2024/03/14 01:07:15;;;;;;;13.20;5.50;;;8.80;99.90;;;;;;5034720;28;20056;-66
2024/03/14 01:09:40;;;;;;;18.08;7.55;;;8.90;99.90;;;;;;5036674;28;20045;-66
2024/03/14 01:12:06;;;;;;;15.30;6.57;;;8.90;99.90;;;;;;5032800;28;21334;-66
2024/03/14 01:14:31;;;;;;;12.70;5.88;;;8.80;99.90;;;;;;5030538;28;20078;-66
2024/03/14 01:16:57;;;;;;;12.88;6.47;;;8.90;99.90;;;;;;5034792;28;20044;-66
2024/03/14 01:19:22;;;;;;;13.52;6.30;;;8.90;99.90;;;;;;5032540;28;20282;-65
2024/03/14 01:21:48;;;;;;;13.98;6.70;;;8.90;99.90;;;;;;5037591;28;20053;-65
2024/03/14 01:24:13;;;;;;;13.88;6.38;;;8.90;99.90;;;;;;5040906;28;20123;-66
2024/03/14 01:26:40;;;;;;;12.57;6.32;;;8.90;99.90;;;;;;5038257;28;20144;-65
2024/03/14 01:29:06;;;;;;;13.25;6.22;;;8.90;99.90;;;;;;5034568;28;20029;-65
2024/03/14 01:31:32;;;;;;;15.27;6.75;;;8.90;99.90;;;;;;5035481;28;20112;-66
2024/03/14 01:33:58;;;;;;;13.23;6.57;;;9.00;99.90;;;;;;5032513;28;20132;-66
2024/03/14 01:36:24;;;;;;;13.57;6.72;;;9.00;99.90;;;;;;5033567;28;20111;-66
2024/03/14 01:38:51;;;;;;;13.63;6.53;;;8.90;99.90;;;;;;5033714;28;20377;-66
2024/03/14 01:41:18;;;;;;;14.27;7.03;;;9.00;99.90;;;;;;5031660;28;20032;-65
2024/03/14 01:43:59;;;;;;;14.60;5.90;;;8.90;99.90;;;;;;5028859;28;20052;-66
2024/03/14 01:46:29;;;;;;;16.10;6.95;;;8.90;99.90;;;;;;5031439;28;20101;-65
2024/03/14 01:48:56;;;;;;;14.98;6.50;;;8.90;99.90;;;;;;5028124;28;20093;-65
2024/03/14 01:51:24;;;;;;;14.93;6.60;;;8.90;99.90;;;;;;5028265;28;20037;-65
2024/03/14 01:53:50;;;;;;;14.43;6.18;;;8.90;99.90;;;;;;5036886;28;20134;-66
2024/03/14 01:56:17;;;;;;;15.25;6.78;;;8.90;99.90;;;;;;5032816;28;20148;-66
2024/03/14 01:58:43;;;;;;;12.85;5.60;;;8.90;99.90;;;;;;5030899;28;20032;-65
2024/03/14 02:01:10;;;;;;;13.15;6.25;;;8.90;99.90;;;;;;5031365;28;20125;-65
2024/03/14 02:03:36;;;;;;;14.75;6.47;;;8.80;99.90;;;;;;5037826;28;20071;-65
2024/03/14 02:06:15;;;;;;;12.43;6.03;;;8.90;99.90;;;;;;5027232;28;20034;-65
2024/03/14 02:08:41;;;;;;;11.50;5.55;;;8.90;99.90;;;;;;5029558;28;20033;-66
2024/03/14 02:11:06;;;;;;;14.00;6.63;;;8.90;99.90;;;;;;5027786;28;20052;-65
2024/03/14 02:13:32;;;;;;;16.48;6.90;;;8.90;99.90;;;;;;5048475;28;20029;-65
2024/03/14 02:15:57;;;;;;;14.15;6.72;;;8.90;99.90;;;;;;5039982;28;20025;-65
2024/03/14 02:18:23;;;;;;;12.80;5.88;;;8.80;99.90;;;;;;5031381;28;20037;-66
2024/03/14 02:20:48;;;;;;;11.32;5.75;;;8.90;99.90;;;;;;5026777;28;20075;-65
2024/03/14 02:23:14;;;;;;;13.77;6.18;;;8.80;99.90;;;;;;5038620;28;20056;-65
2024/03/14 02:25:39;;;;;;;14.18;5.88;;;8.90;99.90;;;;;;5030962;28;21206;-66
2024/03/14 02:28:05;;;;;;;11.15;5.43;;;8.90;99.90;;;;;;5025073;28;20045;-65
2024/03/14 02:30:30;;;;;;;14.05;6.63;;;8.90;99.90;;;;;;5029110;28;20550;-65
2024/03/14 02:32:56;;;;;;;12.55;5.82;;;8.80;99.90;;;;;;5031839;28;20095;-65
2024/03/14 02:35:22;;;;;;;12.60;6.03;;;8.90;99.90;;;;;;5034973;28;20039;-65
2024/03/14 02:37:47;;;;;;;13.82;5.50;;;8.90;99.90;;;;;;5032508;28;20033;-65
2024/03/14 02:40:13;;;;;;;14.82;6.10;;;8.90;99.90;;;;;;5032280;28;20080;-65
2024/03/14 02:42:38;;;;;;;12.80;5.47;;;8.90;99.90;;;;;;5031908;28;20291;-65
2024/03/14 02:45:07;;;;;;;13.95;6.03;;;8.90;99.90;;;;;;5032773;28;20041;-67
2024/03/14 02:47:33;;;;;;;11.13;5.50;;;8.90;99.90;;;;;;5036192;28;20510;-65
2024/03/14 02:49:58;;;;;;;11.48;5.40;;;8.90;99.90;;;;;;5032228;28;20115;-66
2024/03/14 02:52:26;;;;;;;12.88;6.20;;;9.00;99.70;;;;;;5032389;28;20057;-65
2024/03/14 02:54:51;;;;;;;12.82;6.30;;;8.90;99.60;;;;;;5031576;28;20034;-65
2024/03/14 02:57:17;;;;;;;12.00;5.68;;;8.80;99.60;;;;;;5041661;28;20041;-65
2024/03/14 02:59:42;;;;;;;10.77;6.15;;;8.80;99.70;;;;;;5040878;28;20457;-65
2024/03/14 03:02:10;;;;;;;10.98;5.35;;;8.90;99.70;;;;;;5039037;28;20033;-66
2024/03/14 03:04:37;;;;;;;10.85;6.43;;;8.80;99.60;;;;;;5038698;28;20017;-65
2024/03/14 03:07:05;;;;;;;13.20;6.45;;;8.90;99.60;;;;;;5039000;28;20065;-65
2024/03/14 03:09:31;;;;;;;12.15;5.53;;;8.90;99.70;;;;;;5034444;28;20037;-66
2024/03/14 03:11:59;;;;;;;10.32;5.38;;;8.90;99.60;;;;;;5038633;28;20034;-65
2024/03/14 03:14:25;;;;;;;11.95;6.13;;;8.80;99.50;;;;;;5035297;28;20338;-65
2024/03/14 03:16:52;;;;;;;11.75;5.72;;;8.80;99.60;;;;;;5032112;28;20085;-65
2024/03/14 03:19:18;;;;;;;12.07;6.60;;;8.80;99.60;;;;;;5040992;28;20509;-65
2024/03/14 03:21:43;;;;;;;10.88;5.18;;;8.80;99.60;;;;;;5032545;28;20102;-65
2024/03/14 03:24:09;;;;;;;10.65;5.43;;;8.80;99.60;;;;;;5035962;28;20104;-65
2024/03/14 03:26:35;;;;;;;12.60;6.22;;;8.80;99.60;;;;;;5036059;28;20084;-65
2024/03/14 03:29:03;;;;;;;13.95;5.28;;;8.80;99.70;;;;;;5038815;28;20036;-66
2024/03/14 03:31:29;;;;;;;11.80;5.85;;;8.80;99.70;;;;;;5038058;28;20039;-65
2024/03/14 03:33:55;;;;;;;10.98;5.45;;;8.80;99.70;;;;;;5034703;28;20030;-65
2024/03/14 03:36:23;;;;;;;11.18;5.78;;;8.80;99.60;;;;;;5032572;28;20056;-67
2024/03/14 03:38:49;;;;;;;11.82;5.28;;;8.80;99.50;;;;;;5042712;28;20029;-65
2024/03/14 03:41:16;;;;;;;12.25;5.55;;;8.80;99.40;;;;;;5038920;28;20426;-66
2024/03/14 03:43:43;;;;;;;11.60;5.65;;;8.80;99.40;;;;;;5037264;28;20144;-65
2024/03/14 03:46:09;;;;;;;10.15;5.55;;;8.80;99.40;;;;;;5025102;28;20037;-65
2024/03/14 03:48:38;;;;;;;12.52;4.90;;;8.80;99.40;;;;;;5043807;28;20017;-65
2024/03/14 03:51:08;;;;;;;10.90;4.63;;;8.80;99.40;;;;;;5037111;28;20049;-65
2024/03/14 03:53:33;;;;;;;11.70;5.45;;;8.80;99.30;;;;;;5028034;28;20053;-65
2024/03/14 03:56:02;;;;;;;14.15;6.20;;;8.90;99.20;;;;;;5032949;28;20151;-65
2024/03/14 03:58:30;;;;;;;11.07;6.18;;;8.80;99.20;;;;;;5033060;28;20078;-65
2024/03/14 04:01:06;;;;;;;12.82;5.90;;;8.80;99.20;;;;;;5032101;28;20043;-65
2024/03/14 04:03:32;;;;;;;9.48;4.93;;;8.80;99.20;;;;;;5046641;28;20024;-65
2024/03/14 04:05:59;;;;;;;10.02;5.68;;;8.80;99.20;;;;;;5031254;28;20074;-66
2024/03/14 04:08:25;;;;;;;10.73;5.68;;;8.80;99.20;;;;;;5034274;28;20032;-65
2024/03/14 04:10:51;;;;;;;8.57;4.90;;;8.80;99.20;;;;;;5041459;28;20049;-65
2024/03/14 04:13:17;;;;;;;11.07;5.75;;;8.80;99.10;;;;;;5033911;28;20141;-65
2024/03/14 04:15:43;;;;;;;12.50;5.80;;;8.80;99.10;;;;;;5039717;28;20429;-66
2024/03/14 04:18:09;;;;;;;11.93;5.80;;;8.80;99.10;;;;;;5027208;28;20037;-67
2024/03/14 04:20:37;;;;;;;12.75;6.25;;;8.80;99.20;;;;;;5041358;28;20036;-65
2024/03/14 04:23:05;;;;;;;11.48;5.68;;;8.80;99.20;;;;;;5034006;28;20093;-65
2024/03/14 04:25:33;;;;;;;13.02;6.07;;;8.80;99.10;;;;;;5043711;28;20028;-66
2024/03/14 04:27:59;;;;;;;12.55;6.15;;;8.80;99.10;;;;;;5029665;28;20037;-65
2024/03/14 04:30:25;;;;;;;10.65;5.38;;;8.80;99.10;;;;;;5030574;28;20029;-65
2024/03/14 04:32:51;;;;;;;11.43;5.85;;;8.80;99.10;;;;;;5038156;28;20071;-65
2024/03/14 04:35:18;;;;;;;11.55;5.43;;;8.80;99.10;;;;;;5036348;28;20049;-65
2024/03/14 04:37:47;;;;;;;14.63;6.45;;;8.80;99.10;;;;;;5027932;28;20374;-66
2024/03/14 04:40:19;;;;;;;11.73;5.95;;;8.80;99.20;;;;;;5041412;28;20441;-65
2024/03/14 04:42:44;;;;;;;9.48;5.03;;;8.80;99.20;;;;;;5034378;28;20164;-65
2024/03/14 04:45:12;;;;;;;11.05;5.82;;;8.80;99.10;;;;;;5037442;28;20132;-65
2024/03/14 04:47:41;;;;;;;11.32;5.53;;;8.80;99.10;;;;;;5031598;28;20419;-65
2024/03/14 04:50:13;;;;;;;10.98;5.97;;;8.80;99.10;;;;;;5035254;28;20075;-65
2024/03/14 04:52:39;;;;;;;9.70;5.50;;;8.80;99.20;;;;;;5033503;28;20072;-66
2024/03/14 04:55:08;;;;;;;12.00;5.95;;;8.80;99.20;;;;;;5037716;28;20021;-65
2024/03/14 04:57:34;;;;;;;12.52;5.65;;;8.80;99.10;;;;;;5036168;28;20039;-65
2024/03/14 05:00:00;;;;;;;11.40;5.97;;;8.80;99.10;;;;;;5032104;28;20025;-67
2024/03/14 05:02:26;;;;;;;14.18;6.60;;;8.80;99.20;;;;;;5038878;28;20124;-65
2024/03/14 05:04:52;;;;;;;13.20;6.68;;;8.80;99.20;;;;;;5037745;28;20106;-65
2024/03/14 05:07:18;;;;;;;12.35;5.63;;;8.80;99.20;;;;;;5037554;28;20063;-65
2024/03/14 05:09:44;;;;;;;11.60;5.70;;;8.80;99.20;;;;;;5036181;28;20021;-65
2024/03/14 05:12:10;;;;;;;12.65;5.78;;;8.80;99.20;;;;;;5034499;28;20041;-65
2024/03/14 05:14:38;;;;;;;11.35;5.47;;;8.80;99.20;;;;;;5039384;28;20037;-65
2024/03/14 05:17:04;;;;;;;10.90;5.32;;;8.80;99.20;;;;;;5036641;28;20037;-65
2024/03/14 05:19:30;;;;;;;10.65;5.78;;;8.80;99.20;;;;;;5034813;28;20113;-66
2024/03/14 05:21:56;;;;;;;11.27;6.18;;;8.90;99.10;;;;;;5034784;28;20080;-66
2024/03/14 05:24:21;;;;;;;12.05;6.60;;;8.80;99.10;;;;;;5041849;28;20421;-66
2024/03/14 05:26:47;;;;;;;14.18;6.28;;;8.90;99.00;;;;;;5041312;28;20117;-65
2024/03/14 05:29:12;;;;;;;11.38;5.88;;;8.90;99.00;;;;;;5037663;28;20163;-65
2024/03/14 05:31:38;;;;;;;11.48;6.57;;;8.90;98.90;;;;;;5034411;28;20039;-64
2024/03/14 05:34:03;;;;;;;11.75;6.82;;;8.90;98.90;;;;;;5039394;28;20021;-64
2024/03/14 05:36:29;;;;;;;14.95;6.10;;;8.90;98.80;;;;;;5030812;28;20041;-64
2024/03/14 05:38:54;;;;;;;10.85;5.60;;;8.90;98.80;;;;;;5027225;28;20029;-65
2024/03/14 05:41:20;;;;;;;12.13;6.75;;;8.90;98.70;;;;;;5036757;28;20024;-65
2024/03/14 05:43:46;;;;;;;11.00;5.85;;;9.00;98.70;;;;;;5030994;28;20453;-65
2024/03/14 05:46:12;;;;;;;10.68;5.55;;;9.00;98.70;;;;;;5027890;28;20026;-65
2024/03/14 05:48:37;;;;;;;12.68;6.78;;;9.00;98.50;;;;;;5036254;28;20102;-65
2024/03/14 05:51:03;;;;;;;12.38;6.13;;;9.00;98.40;;;;;;5029312;28;20132;-64
2024/03/14 05:53:31;;;;;;;10.95;6.13;;;9.00;98.40;;;;;;5044516;28;20024;-64
2024/03/14 05:55:56;;;;;;;12.32;6.53;;;9.00;98.50;;;;;;5027287;28;20029;-66
2024/03/14 05:58:22;;;;;;;13.30;6.93;;;9.00;98.40;;;;;;5029976;28;20040;-64
2024/03/14 06:00:47;;;;;;;13.98;6.60;;;9.00;98.40;;;;;;5027007;28;20435;-64
2024/03/14 06:03:13;;;;;;;10.90;5.28;;;9.00;98.40;;;;;;5033802;28;20035;-64
2024/03/14 06:05:39;;;;;;;11.82;5.93;;;9.00;98.40;;;;;;5026692;28;20052;-65
2024/03/14 06:08:05;;;;;;;11.82;6.40;;;9.00;98.30;;;;;;5037997;28;20033;-64
2024/03/14 06:10:30;;;;;;;11.80;6.43;;;9.10;98.30;;;;;;5027795;28;20041;-64
2024/03/14 06:12:56;;;;;;;8.93;5.35;;;9.10;98.20;;;;;;5026601;28;20223;-65
2024/03/14 06:15:21;;;;;;;11.77;6.55;;;9.10;98.00;;;;;;5032816;28;20041;-64
2024/03/14 06:17:50;;;;;;;10.13;5.50;;;9.10;98.00;;;;;;5040170;28;20024;-64
2024/03/14 06:20:18;;;;;;;12.00;6.05;;;9.10;98.00;;;;;;5028736;28;20347;-64
2024/03/14 06:22:44;;;;;;;12.80;6.20;;;9.10;98.00;;;;;;5031330;28;20068;-64
2024/03/14 06:25:10;;;;;;;8.75;5.32;;;9.10;98.00;;;;;;5026726;28;20052;-65
2024/03/14 06:27:37;;;;;;;15.55;6.95;;;9.10;98.20;;;;;;5030906;28;20128;-68
2024/03/14 06:30:09;;;;;;;11.43;5.75;;;9.10;98.40;;;;;;5026882;28;20033;-66
2024/03/14 06:32:36;;;;;;;10.95;5.72;;;9.10;98.50;;;;;;5031437;28;20037;-66
2024/03/14 06:35:02;;;;;;;11.73;6.40;;;9.00;98.60;;;;;;5030132;28;20059;-65
2024/03/14 06:37:28;;;;;;;12.20;5.95;;;9.00;98.70;;;;;;5025027;28;20497;-65
2024/03/14 06:39:53;;;;;;;11.43;5.47;;;9.00;98.80;;;;;;5036174;28;20116;-65
2024/03/14 06:42:20;;;;;;;11.45;6.45;;;9.00;98.80;;;;;;5032854;28;20060;-66
2024/03/14 06:44:47;;;;;;;11.45;5.95;;;9.00;98.70;;;;;;5033179;28;20051;-66
2024/03/14 06:47:13;;;;;;;9.80;5.20;;;9.10;98.80;;;;;;5040349;28;20033;-64
2024/03/14 06:49:42;;;;;;;10.75;5.50;;;9.10;98.80;;;;;;5029532;28;20441;-64
2024/03/14 06:52:09;;;;;;;10.63;5.07;;;9.10;98.70;;;;;;5030417;28;20105;-65
2024/03/14 06:54:37;;;;;;;9.93;5.47;;;9.10;98.50;;;;;;5030022;28;20040;-64
2024/03/14 06:57:05;;;;;;;8.77;4.90;;;9.20;98.40;;;;;;5028790;28;20388;-64
2024/03/14 06:59:33;;;;;;;13.35;6.20;;;9.20;98.30;;;;;;5029641;28;20451;-64
2024/03/14 07:02:00;;;;;;;11.60;5.53;;;9.20;98.10;;;;;;5027692;28;20032;-64
2024/03/14 07:04:27;;;;;;;11.90;6.70;;;9.20;98.00;;;;;;5034686;28;20041;-65
2024/03/14 07:06:52;;;;;;;10.93;5.82;;;9.20;97.90;;;;;;5027392;28;20087;-64
2024/03/14 07:09:18;;;;;;;10.48;5.47;;;9.30;97.60;;;;;;5033582;28;20045;-64
2024/03/14 07:11:45;;;;;;;8.27;4.88;;;9.30;97.50;;;;;;5035052;28;20032;-65
2024/03/14 07:14:11;;;;;;;11.10;5.85;;;9.30;97.30;;;;;;5032137;28;20041;-65
2024/03/14 07:16:39;;;;;;;10.63;5.70;;;9.30;97.30;;;;;;5028997;28;20034;-64
2024/03/14 07:19:06;;;;;;;10.10;6.10;;;9.30;97.30;;;;;;5027617;28;20057;-65
2024/03/14 07:21:33;;;;;;;10.23;5.72;;;9.30;97.40;;;;;;5028787;28;20091;-64
2024/03/14 07:23:59;;;;;;;9.00;5.15;;;9.30;97.20;;;;;;5027547;28;20018;-65
2024/03/14 07:26:25;;;;;;;10.73;5.57;;;9.40;97.20;;;;;;5029938;28;20349;-64
2024/03/14 07:28:53;;;;;;;10.55;5.25;;;9.40;97.10;;;;;;5025794;28;20038;-64
2024/03/14 07:31:19;;;;;;;10.68;5.93;;;9.50;96.90;;;;;;5029908;28;20037;-63
2024/03/14 07:33:45;;;;;;;12.57;5.40;;;9.50;96.70;;;;;;5033436;28;20041;-64
2024/03/14 07:36:17;;;;;;;8.57;5.00;;;9.60;96.60;;;;;;5027963;28;20037;-64
2024/03/14 07:38:44;;;;;;;10.57;5.43;;;9.70;96.40;;;;;;5025089;28;20441;-64
2024/03/14 07:41:11;;;;;;;7.60;4.68;;;9.80;96.20;;;;;;5031904;28;20049;-64
2024/03/14 07:43:37;;;;;;;10.13;5.55;;;9.90;96.00;;;;;;5029398;28;20145;-64
2024/03/14 07:46:02;;;;;;;8.13;5.13;;;10.00;95.80;;;;;;5028384;28;20157;-64
2024/03/14 07:48:28;;;;;;;10.23;5.30;;;10.00;95.60;;;;;;5030131;28;20125;-64
2024/03/14 07:50:53;;;;;;;9.30;4.78;;;10.10;95.60;;;;;;5030622;28;20123;-65
2024/03/14 07:53:20;;;;;;;7.47;4.95;;;10.10;95.40;;;;;;5037951;28;20041;-65
2024/03/14 07:55:46;;;;;;;7.85;4.57;;;10.20;95.20;;;;;;5039479;28;20025;-65
2024/03/14 07:58:11;;;;;;;9.50;4.93;;;10.20;95.20;;;;;;5035971;28;20311;-65
2024/03/14 08:00:37;;;;;;;8.52;4.78;;;10.20;95.00;;;;;;5034036;28;20036;-65
2024/03/14 08:03:03;;;;;;;9.50;4.72;;;10.30;94.80;;;;;;5043042;28;20049;-65
2024/03/14 08:05:33;;;;;;;9.13;4.43;;;10.30;94.70;;;;;;5046595;28;20458;-65
2024/03/14 08:08:02;;;;;;;8.88;4.95;;;10.40;94.50;;;;;;5040834;28;20033;-65
2024/03/14 08:10:28;;;;;;;7.70;4.25;;;10.50;94.60;;;;;;5042497;28;20025;-65
2024/03/14 08:12:57;;;;;;;9.00;4.70;;;10.60;94.20;;;;;;5034985;28;20334;-65
2024/03/14 08:15:35;;;;;;;8.40;5.10;;;10.80;93.90;;;;;;5037661;28;20025;-64
2024/03/14 08:18:02;;;;;;;6.60;4.03;;;10.90;93.50;;;;;;5035193;28;20044;-66
2024/03/14 08:20:28;;;;;;;8.68;4.40;;;11.00;93.20;;;;;;5035846;28;20034;-65
2024/03/14 08:22:54;;;;;;;7.45;4.20;;;11.10;92.90;;;;;;5032110;28;20433;-67
2024/03/14 08:25:19;;;;;;;6.72;3.85;;;11.10;92.30;;;;;;5048530;28;20036;-64
2024/03/14 08:27:49;;;;;;;7.15;3.88;;;11.30;92.20;;;;;;5036728;28;20064;-65
2024/03/14 08:30:15;;;;;;;6.85;4.10;;;11.30;91.90;;;;;;5036741;28;20083;-65
2024/03/14 08:32:43;;;;;;;7.55;4.07;;;11.30;91.60;;;;;;5042841;28;20509;-65
2024/03/14 08:35:10;;;;;;;6.78;3.95;;;11.30;91.20;;;;;;5041646;28;20064;-65
2024/03/14 08:37:36;;;;;;;7.28;3.72;;;11.40;91.60;;;;;;5031838;28;20036;-66
2024/03/14 08:40:05;;;;;;;6.88;4.05;;;11.40;91.20;;;;;;5043197;28;20441;-64
2024/03/14 08:42:33;;;;;;;7.05;3.60;;;11.40;91.50;;;;;;5038617;28;20536;-64
2024/03/14 08:45:00;;;;;;;6.32;3.65;;;11.30;91.20;;;;;;5039424;28;20099;-64
2024/03/14 08:47:27;;;;;;;7.50;3.95;;;11.30;91.50;;;;;;5031368;28;20084;-64
2024/03/14 08:49:52;;;;;;;7.13;3.58;;;11.40;91.50;;;;;;5039699;28;20342;-64
2024/03/14 08:52:21;;;;;;;7.65;3.63;;;11.40;91.50;;;;;;5041996;28;20049;-65
2024/03/14 08:54:47;;;;;;;7.60;3.78;;;11.40;91.20;;;;;;5041150;28;20350;-63
2024/03/14 08:57:18;;;;;;;7.40;3.10;;;11.40;90.80;;;;;;5044851;28;20361;-64
2024/03/14 08:59:44;;;;;;;6.65;3.53;;;11.50;90.80;;;;;;5034424;28;20367;-63
2024/03/14 09:02:09;;;;;;;6.40;3.72;;;11.50;90.40;;;;;;5032180;28;20396;-64
2024/03/14 09:04:35;;;;;;;6.57;4.25;;;11.60;90.40;;;;;;5036783;28;20048;-65
2024/03/14 09:07:06;;;;;;;5.72;2.70;;;11.70;90.10;;;;;;5035761;28;20067;-65
2024/03/14 09:09:34;;;;;;;6.82;3.72;;;11.90;90.10;;;;;;5042335;28;20393;-64
2024/03/14 09:12:13;;;;;;;7.00;3.70;;;12.10;89.70;;;;;;5038897;28;20053;-64
2024/03/14 09:14:42;;;;;;;5.88;3.42;;;12.10;89.70;;;;;;5036463;28;20096;-64
2024/03/14 09:17:08;;;;;;;5.75;3.00;;;12.20;89.50;;;;;;5033795;28;20053;-64
2024/03/14 09:19:37;;;;;;;6.35;3.38;;;12.10;88.90;;;;;;5040365;28;20304;-64
2024/03/14 09:22:02;;;;;;;4.55;2.97;;;12.30;89.00;;;;;;5036322;28;20044;-64
2024/03/14 09:24:28;;;;;;;8.18;3.40;;;12.40;87.30;;;;;;5044378;28;20063;-64
2024/03/14 09:26:54;;;;;;;6.18;3.05;;;12.50;87.50;;;;;;5040239;28;20025;-64
2024/03/14 09:29:21;;;;;;;8.48;3.65;;;12.40;88.20;;;;;;5042469;28;20653;-64
2024/03/14 09:31:48;;;;;;;6.40;3.30;;;12.50;87.30;;;;;;5032963;28;20044;-64
2024/03/14 09:34:15;;;;;;;5.65;2.83;;;12.70;87.20;;;;;;5032359;28;20142;-63
2024/03/14 09:36:41;;;;;;;6.18;3.75;;;12.70;86.50;;;;;;5034976;28;20581;-64
2024/03/14 09:39:18;;;;;;;6.03;3.40;;;13.00;87.30;;;;;;5031798;28;20236;-64
2024/03/14 09:41:46;;;;;;;5.47;3.20;;;12.90;86.20;;;;;;5030719;28;20080;-64
2024/03/14 09:44:12;;;;;;;5.25;2.97;;;13.00;85.70;;;;;;5032588;28;20029;-64
2024/03/14 09:46:42;;;;;;;5.22;2.80;;;13.30;84.60;;;;;;5035038;28;20123;-64
2024/03/14 09:49:16;;;;;;;5.97;2.65;;;13.70;85.00;;;;;;5038928;28;20102;-64
2024/03/14 09:51:43;;;;;;;4.88;2.42;;;13.80;83.40;;;;;;5026784;28;20231;-65
2024/03/14 09:54:10;;;;;;;6.75;2.70;;;13.80;84.20;;;;;;5029953;28;20518;-64
2024/03/14 09:56:35;;;;;;;4.65;2.65;;;14.10;82.50;;;;;;5039643;28;20045;-64
2024/03/14 09:59:01;;;;;;;6.68;3.00;;;14.10;82.90;;;;;;5042018;28;20204;-64
2024/03/14 10:01:27;;;;;;;4.18;2.35;;;14.40;82.40;;;;;;5032051;28;20061;-64
2024/03/14 10:03:53;;;;;;;4.72;2.75;;;14.10;81.40;;;;;;5035025;28;20031;-64
2024/03/14 10:06:20;;;;;;;6.35;2.83;;;14.10;82.10;;;;;;5026094;28;20045;-64
2024/03/14 10:08:46;;;;;;;4.95;2.55;;;14.10;81.80;;;;;;5032923;28;20208;-65
2024/03/14 10:11:13;;;;;;;5.10;2.55;;;13.90;81.10;;;;;;5041363;28;20496;-64
2024/03/14 10:13:40;;;;;;;4.97;2.50;;;13.80;82.40;;;;;;5029648;28;20022;-64
2024/03/14 10:16:05;;;;;;;5.30;2.35;;;13.90;82.80;;;;;;5040634;28;20029;-64
2024/03/14 10:18:32;;;;;;;5.07;2.60;;;13.80;82.60;;;;;;5029999;28;20362;-64
2024/03/14 10:20:57;;;;;;;4.80;2.70;;;13.80;82.20;;;;;;5043180;28;20043;-64
2024/03/14 10:23:25;;;;;;;3.92;2.17;;;14.20;82.30;;;;;;5028804;28;20037;-64
2024/03/14 10:25:53;;;;;;;6.32;2.75;;;14.60;80.70;;;;;;5034297;28;20072;-66
2024/03/14 10:28:20;;;;;;;6.15;2.67;;;14.70;80.60;;;;;;5026230;28;20108;-64
2024/03/14 10:30:51;;;;;;;4.22;1.90;;;14.90;80.40;;;;;;5029992;28;20128;-64
2024/03/14 10:33:18;;;;;;;5.32;2.58;;;14.60;78.50;;;;;;5034925;28;20025;-64
2024/03/14 10:35:45;;;;;;;4.85;2.20;;;14.60;78.40;;;;;;5035229;28;20093;-64
2024/03/14 10:38:17;;;;;;;3.58;1.88;;;14.80;78.50;;;;;;5030317;28;20047;-64
2024/03/14 10:40:44;;;;;;;4.82;2.35;;;14.80;78.00;;;;;;5031374;28;20037;-64
2024/03/14 10:43:11;;;;;;;4.43;2.03;;;14.80;78.20;;;;;;5039030;28;20057;-64
2024/03/14 10:45:36;;;;;;;4.57;2.40;;;15.20;78.90;;;;;;5028869;28;20048;-65
2024/03/14 10:48:04;;;;;;;5.22;2.20;;;15.00;77.30;;;;;;5035528;28;20017;-65
2024/03/14 10:50:32;;;;;;;4.20;1.92;;;14.80;76.70;;;;;;5040439;28;20033;-64
2024/03/14 10:53:00;;;;;;;3.40;1.63;;;14.60;77.10;;;;;;5040984;28;20116;-64
2024/03/14 10:55:30;;;;;;;5.00;1.55;;;14.60;77.30;;;;;;5033668;28;20052;-64
2024/03/14 10:57:58;;;;;;;3.97;2.00;;;14.80;77.40;;;;;;5026817;28;20101;-64
2024/03/14 11:00:24;;;;;;;4.00;1.50;;;14.80;76.60;;;;;;4998909;28;20053;-64
2024/03/14 11:02:51;;;;;;;3.40;1.92;;;15.10;76.70;;;;;;5035065;28;20033;-64
2024/03/14 11:05:22;;;;;;;5.35;1.75;;;15.40;76.60;;;;;;5032123;28;20432;-64
2024/03/14 11:07:53;;;;;;;3.35;1.60;;;15.50;75.80;;;;;;5029650;28;20619;-63
2024/03/14 11:10:28;;;;;;;6.38;1.75;;;15.50;75.30;;;;;;5028149;28;20106;-64
2024/03/14 11:13:09;;;;;;;2.42;1.35;;;15.10;75.50;;;;;;5032236;28;20521;-64
2024/03/14 11:15:38;;;;;;;2.80;1.55;;;15.20;75.60;;;;;;5037899;28;20033;-64
2024/03/14 11:18:07;;;;;;;4.45;1.92;;;15.00;75.60;;;;;;5033357;28;20398;-64
2024/03/14 11:20:35;;;;;;;3.70;2.05;;;15.00;76.90;;;;;;5036846;28;20053;-65
2024/03/14 11:23:05;;;;;;;3.72;2.00;;;15.00;75.90;;;;;;5033704;28;20037;-64
2024/03/14 11:25:35;;;;;;;4.32;1.95;;;14.80;75.80;;;;;;5037705;28;20091;-64
2024/03/14 11:28:02;;;;;;;3.40;1.65;;;14.70;75.80;;;;;;5035825;28;20107;-65
2024/03/14 11:30:27;;;;;;;3.10;1.60;;;15.00;76.60;;;;;;5033268;28;20029;-64
2024/03/14 11:32:56;;;;;;;4.45;1.52;;;14.90;75.00;;;;;;5042250;28;20033;-63
2024/03/14 11:35:36;;;;;;;3.08;1.73;;;14.80;75.70;;;;;;5028907;28;20409;-64
2024/03/14 11:38:22;;;;;;;3.30;1.65;;;14.80;75.50;;;;;;5039841;28;20033;-64
2024/03/14 11:40:53;;;;;;;4.32;2.20;;;15.00;76.30;;;;;;5036482;28;20201;-63
2024/03/14 11:43:22;;;;;;;2.72;1.42;;;14.90;74.60;;;;;;5044860;28;20083;-63
2024/03/14 11:45:57;;;;;;;3.15;1.60;;;14.80;74.30;;;;;;5031577;28;20025;-63
2024/03/14 11:48:28;;;;;;;4.00;1.63;;;15.10;75.30;;;;;;5036233;28;20021;-64
2024/03/14 11:50:55;;;;;;;3.53;1.60;;;15.00;74.20;;;;;;5030635;28;20061;-64
2024/03/14 11:53:22;;;;;;;2.65;1.35;;;15.10;73.70;;;;;;5036770;28;20141;-63
2024/03/14 11:55:48;;;;;;;4.97;1.42;;;15.20;74.10;;;;;;5032301;28;20446;-64
2024/03/14 11:58:15;;;;;;;2.63;1.27;;;15.20;73.10;;;;;;5034415;28;20025;-64
2024/03/14 12:00:42;;;;;;;3.55;1.65;;;15.20;72.20;;;;;;5037614;28;20123;-66
2024/03/14 12:03:09;;;;;;;2.35;1.35;;;15.30;72.50;;;;;;5042367;28;20066;-65
2024/03/14 12:05:41;;;;;;;1.92;1.08;;;15.30;72.70;;;;;;5030495;28;20331;-64
2024/03/14 12:08:10;;;;;;;3.25;1.40;;;15.50;72.20;;;;;;5032726;28;20053;-65
2024/03/14 12:10:37;;;;;;;3.72;1.40;;;15.50;71.20;;;;;;5033107;28;20042;-64
2024/03/14 12:13:02;;;;;;;2.33;1.33;;;15.80;72.90;;;;;;5040095;28;20067;-63
2024/03/14 12:15:28;;;;;;;2.83;1.55;;;15.70;71.40;;;;;;5030152;28;20029;-64
2024/03/14 12:17:57;;;;;;;2.45;1.40;;;16.00;71.00;;;;;;5033060;28;20041;-64
2024/03/14 12:20:24;;;;;;;3.60;1.50;;;16.60;70.10;;;;;;5032171;28;20429;-64
2024/03/14 12:22:51;;;;;;;2.70;1.20;;;16.50;69.60;;;;;;5029108;28;20115;-64
2024/03/14 12:25:20;;;;;;;2.35;1.27;;;17.00;68.80;;;;;;5047878;28;20036;-65
2024/03/14 12:27:48;;;;;;;3.97;1.77;;;16.50;68.70;;;;;;5030415;28;20032;-65
2024/03/14 12:30:16;;;;;;;2.95;1.13;;;16.90;69.90;;;;;;5033663;28;20108;-64
2024/03/14 12:32:43;;;;;;;1.95;1.40;;;16.90;68.80;;;;;;5040735;28;20044;-65
2024/03/14 12:35:09;;;;;;;2.63;1.05;;;16.80;69.50;;;;;;5030499;28;20029;-65
2024/03/14 12:37:36;;;;;;;2.60;1.48;;;16.40;68.40;;;;;;5027869;28;20029;-65
2024/03/14 12:40:11;;;;;;;3.58;1.67;;;16.50;69.00;;;;;;5033217;28;20109;-63
2024/03/14 12:42:37;;;;;;;5.15;1.70;;;16.20;69.00;;;;;;5028635;28;20045;-65
2024/03/14 12:45:04;;;;;;;2.50;1.40;;;16.50;69.70;;;;;;5032395;28;20411;-64
2024/03/14 12:47:31;;;;;;;2.38;1.20;;;16.40;68.90;;;;;;5032048;28;20037;-64